nws-alerts: Checking more than four warning/county codes can delay the loading of your pages. You should use a cron job to get the data.
EllijayWeather Station Historical Data
Daily Summary for May 3, 2019 Units:  English    Metric   Both
Daily Weekly Monthly Yearly Custom
  High: Low: Average:
Temperature: 81 °F 58.5 °F 68.8 °F
Dew Point: 68.4 °F 56.1 °F 62.7 °F
Humidity: 96% 55% 82%
Wind Speed: 2.9mph 0mph 0.1mph
Wind Gust: 5mph - -
Wind- - ESE
Pressure: 30.09 in 29.94 in -
Precipitation: 0 in    
Historical Graphs
 
 
Tabular Data for May 3, 2019
Time Temperature Dew Point Pressure Wind Wind Speed Wind Gust Humidity Rainfall Rate (Hourly) solar
00:04 59.7 °F 56.8 °F 30.09 in Calm     90% 0 in meteobridge W/m2
00:09 59.7 °F 56.8 °F 30.09 in Calm     90% 0 in meteobridge W/m2
00:14 59.5 °F 56.7 °F 30.09 in Calm     90% 0 in meteobridge W/m2
00:19 59.5 °F 56.7 °F 30.09 in Calm     90% 0 in meteobridge W/m2
00:24 59.4 °F 56.7 °F 30.09 in Calm     91% 0 in meteobridge W/m2
00:29 59.4 °F 56.7 °F 30.09 in Calm     91% 0 in meteobridge W/m2
00:34 59.2 °F 56.5 °F 30.09 in Calm     91% 0 in meteobridge W/m2
00:39 59.2 °F 56.5 °F 30.09 in Calm     91% 0 in meteobridge W/m2
00:44 59 °F 56.7 °F 30.09 in Calm     92% 0 in meteobridge W/m2
00:49 59 °F 56.7 °F 30.09 in Calm     92% 0 in meteobridge W/m2
00:54 59 °F 56.7 °F 30.09 in Calm     92% 0 in meteobridge W/m2
00:59 59 °F 56.7 °F 30.08 in Calm     92% 0 in meteobridge W/m2
01:04 59 °F 56.7 °F 30.09 in Calm     92% 0 in meteobridge W/m2
01:09 58.8 °F 56.5 °F 30.08 in Calm     92% 0 in meteobridge W/m2
01:14 58.8 °F 56.5 °F 30.08 in Calm     92% 0 in meteobridge W/m2
01:19 58.8 °F 56.5 °F 30.09 in Calm     92% 0 in meteobridge W/m2
01:24 58.8 °F 56.5 °F 30.08 in Calm     92% 0 in meteobridge W/m2
01:29 58.6 °F 56.3 °F 30.08 in Calm     92% 0 in meteobridge W/m2
01:34 58.6 °F 56.3 °F 30.08 in Calm     92% 0 in meteobridge W/m2
01:39 58.6 °F 56.3 °F 30.08 in Calm     92% 0 in meteobridge W/m2
01:44 58.5 °F 56.1 °F 30.08 in Calm     92% 0 in meteobridge W/m2
01:49 58.5 °F 56.1 °F 30.08 in Calm     92% 0 in meteobridge W/m2
01:54 58.5 °F 56.1 °F 30.08 in Calm     92% 0 in meteobridge W/m2
01:59 58.5 °F 56.1 °F 30.07 in Calm     92% 0 in meteobridge W/m2
02:04 58.5 °F 56.5 °F 30.07 in Calm     93% 0 in meteobridge W/m2
02:09 58.5 °F 56.5 °F 30.07 in Calm     93% 0 in meteobridge W/m2
02:14 58.5 °F 56.5 °F 30.07 in Calm     93% 0 in meteobridge W/m2
02:19 58.5 °F 56.5 °F 30.07 in Calm     93% 0 in meteobridge W/m2
02:24 58.5 °F 56.5 °F 30.06 in Calm     93% 0 in meteobridge W/m2
02:29 58.5 °F 56.5 °F 30.06 in Calm     93% 0 in meteobridge W/m2
02:34 58.5 °F 56.5 °F 30.06 in Calm     93% 0 in meteobridge W/m2
02:39 58.5 °F 56.5 °F 30.06 in Calm     93% 0 in meteobridge W/m2
02:44 58.5 °F 56.5 °F 30.06 in Calm     93% 0 in meteobridge W/m2
02:49 58.5 °F 56.5 °F 30.06 in Calm     93% 0 in meteobridge W/m2
02:54 58.5 °F 56.5 °F 30.06 in Calm     93% 0 in meteobridge W/m2
02:59 58.6 °F 56.7 °F 30.06 in Calm     93% 0 in meteobridge W/m2
03:04 58.6 °F 56.7 °F 30.06 in Calm     93% 0 in meteobridge W/m2
03:09 58.6 °F 56.7 °F 30.06 in Calm     93% 0 in meteobridge W/m2
03:14 58.8 °F 56.8 °F 30.05 in Calm     93% 0 in meteobridge W/m2
03:19 58.8 °F 56.8 °F 30.05 in Calm     93% 0 in meteobridge W/m2
03:24 59 °F 56.7 °F 30.05 in Calm     92% 0 in meteobridge W/m2
03:29 59 °F 56.7 °F 30.05 in Calm     92% 0 in meteobridge W/m2
03:34 59 °F 56.7 °F 30.05 in Calm     92% 0 in meteobridge W/m2
03:39 59.2 °F 56.8 °F 30.06 in Calm     92% 0 in meteobridge W/m2
03:44 59.2 °F 56.8 °F 30.06 in Calm     92% 0 in meteobridge W/m2
03:49 59.2 °F 56.8 °F 30.06 in Calm     92% 0 in meteobridge W/m2
03:54 59.2 °F 56.8 °F 30.06 in Calm     92% 0 in meteobridge W/m2
03:59 59.2 °F 56.8 °F 30.06 in Calm     92% 0 in meteobridge W/m2
04:04 59.2 °F 57.2 °F 30.06 in Calm     93% 0 in meteobridge W/m2
04:09 59.4 °F 57 °F 30.06 in Calm     92% 0 in meteobridge W/m2
04:14 59.4 °F 57 °F 30.06 in Calm     92% 0 in meteobridge W/m2
04:19 59.4 °F 57 °F 30.06 in Calm     92% 0 in meteobridge W/m2
04:24 59.5 °F 57.2 °F 30.05 in Calm     92% 0 in meteobridge W/m2
04:29 59.5 °F 57.2 °F 30.05 in Calm     92% 0 in meteobridge W/m2
04:34 59.5 °F 57.2 °F 30.05 in Calm     92% 0 in meteobridge W/m2
04:39 59.7 °F 57.4 °F 30.05 in Calm     92% 0 in meteobridge W/m2
04:44 59.7 °F 57.4 °F 30.05 in Calm     92% 0 in meteobridge W/m2
04:49 59.9 °F 57.6 °F 30.06 in Calm     92% 0 in meteobridge W/m2
04:54 59.9 °F 57.6 °F 30.05 in Calm     92% 0 in meteobridge W/m2
04:59 59.9 °F 57.6 °F 30.05 in Calm     92% 0 in meteobridge W/m2
05:04 59.9 °F 57.6 °F 30.05 in Calm     92% 0 in meteobridge W/m2
05:09 60.1 °F 57.7 °F 30.05 in Calm     92% 0 in meteobridge W/m2
05:14 60.1 °F 57.7 °F 30.04 in Calm     92% 0 in meteobridge W/m2
05:19 60.1 °F 57.7 °F 30.04 in Calm     92% 0 in meteobridge W/m2
05:24 60.1 °F 58.1 °F 30.04 in Calm     93% 0 in meteobridge W/m2
05:29 60.3 °F 58.3 °F 30.04 in Calm     93% 0 in meteobridge W/m2
05:34 60.1 °F 57.7 °F 30.03 in Calm     92% 0 in meteobridge W/m2
05:39 60.1 °F 57.7 °F 30.04 in Calm     92% 0 in meteobridge W/m2
05:44 60.1 °F 57.7 °F 30.04 in Calm     92% 0 in meteobridge W/m2
05:49 59.9 °F 57.6 °F 30.05 in Calm     92% 0 in meteobridge W/m2
05:54 59.9 °F 57.9 °F 30.05 in Calm     93% 0 in meteobridge W/m2
05:59 60.1 °F 58.1 °F 30.04 in Calm     93% 0 in meteobridge W/m2
06:04 60.1 °F 58.3 °F 30.04 in Calm     94% 0 in meteobridge W/m2
06:09 60.1 °F 58.1 °F 30.04 in Calm     93% 0 in meteobridge W/m2
06:14 60.3 °F 58.3 °F 30.04 in Calm     93% 0 in meteobridge W/m2
06:19 60.1 °F 58.1 °F 30.04 in Calm     93% 0 in meteobridge W/m2
06:24 60.3 °F 58.3 °F 30.04 in Calm     93% 0 in meteobridge W/m2
06:29 60.4 °F 58.6 °F 30.04 in Calm     94% 0 in meteobridge W/m2
06:34 60.4 °F 58.6 °F 30.04 in Calm     94% 0 in meteobridge W/m2
06:39 60.6 °F 58.8 °F 30.04 in Calm     94% 0 in meteobridge W/m2
06:44 60.8 °F 59 °F 30.04 in Calm     94% 0 in meteobridge W/m2
06:49 61 °F 59.2 °F 30.04 in Calm     94% 0 in meteobridge W/m2
06:54 61.2 °F 59.7 °F 30.05 in Calm     95% 0 in meteobridge W/m2
06:59 61.3 °F 59.5 °F 30.05 in Calm     94% 0 in meteobridge W/m2
07:04 61.5 °F 59.5 °F 30.05 in Calm     93% 0 in meteobridge W/m2
07:09 61.5 °F 59.7 °F 30.06 in Calm     94% 0 in meteobridge W/m2
07:14 61.9 °F 60.4 °F 30.06 in Calm     95% 0 in meteobridge W/m2
07:19 62.2 °F 60.8 °F 30.06 in Calm     95% 0 in meteobridge W/m2
07:24 62.8 °F 61.3 °F 30.06 in Calm     95% 0 in meteobridge W/m2
07:29 63 °F 61.5 °F 30.06 in Calm     95% 0 in meteobridge W/m2
07:34 63.1 °F 61.7 °F 30.06 in Calm     95% 0 in meteobridge W/m2
07:39 63.7 °F 62.6 °F 30.06 in Calm     96% 0 in meteobridge W/m2
07:44 64 °F 63 °F 30.06 in Calm     96% 0 in meteobridge W/m2
07:49 64.8 °F 63.7 °F 30.06 in Calm     96% 0 in meteobridge W/m2
07:54 65.3 °F 63.9 °F 30.07 in Calm     95% 0 in meteobridge W/m2
07:59 65.7 °F 63.9 °F 30.07 in Calm     94% 0 in meteobridge W/m2
08:04 66.2 °F 64.4 °F 30.07 in Calm     94% 0 in meteobridge W/m2
08:09 66.4 °F 64.2 °F 30.07 in Calm     93% 0 in meteobridge W/m2
08:14 66.7 °F 64.6 °F 30.06 in Calm   1 mph 93% 0 in meteobridge W/m2
08:19 66.9 °F 64.6 °F 30.06 in Calm   2 mph 92% 0 in meteobridge W/m2
08:24 66.9 °F 64.6 °F 30.07 in Calm     92% 0 in meteobridge W/m2
08:29 66.9 °F 64.6 °F 30.07 in Calm     92% 0 in meteobridge W/m2
08:34 66.9 °F 64.6 °F 30.07 in Calm     92% 0 in meteobridge W/m2
08:39 66.9 °F 64.6 °F 30.07 in Calm     92% 0 in meteobridge W/m2
08:44 66.9 °F 64.6 °F 30.06 in Calm     92% 0 in meteobridge W/m2
08:49 66.9 °F 64.6 °F 30.06 in Calm     92% 0 in meteobridge W/m2
08:54 67.1 °F 64.8 °F 30.06 in Calm     92% 0 in meteobridge W/m2
08:59 67.3 °F 64.9 °F 30.06 in Calm     92% 0 in meteobridge W/m2
09:04 67.5 °F 65.1 °F 30.06 in Calm     92% 0 in meteobridge W/m2
09:09 67.6 °F 64.9 °F 30.06 in Calm     91% 0 in meteobridge W/m2
09:14 68.2 °F 65.1 °F 30.06 in Calm     90% 0 in meteobridge W/m2
09:19 68.5 °F 65.5 °F 30.06 in Calm     90% 0 in meteobridge W/m2
09:24 68.7 °F 65.3 °F 30.06 in Calm   2 mph 89% 0 in meteobridge W/m2
09:29 69.1 °F 65.7 °F 30.06 in Calm   2 mph 89% 0 in meteobridge W/m2
09:34 69.8 °F 66 °F 30.06 in NE 2 mph 2 mph 88% 0 in meteobridge W/m2
09:39 70.3 °F 66.2 °F 30.06 in Calm   2 mph 87% 0 in meteobridge W/m2
09:44 70.5 °F 65.8 °F 30.06 in ENE 0.9 mph 1 mph 85% 0 in meteobridge W/m2
09:49 70.5 °F 65.8 °F 30.06 in Calm   1 mph 85% 0 in meteobridge W/m2
09:54 70.5 °F 66.2 °F 30.06 in Calm     86% 0 in meteobridge W/m2
09:59 70.5 °F 65.8 °F 30.06 in Calm     85% 0 in meteobridge W/m2
10:04 70.5 °F 65.8 °F 30.06 in Calm   1 mph 85% 0 in meteobridge W/m2
10:09 71.1 °F 66.4 °F 30.06 in Calm   1 mph 85% 0 in meteobridge W/m2
10:14 71.4 °F 66.7 °F 30.06 in Calm     85% 0 in meteobridge W/m2
10:19 71.6 °F 66.2 °F 30.06 in Calm   1 mph 83% 0 in meteobridge W/m2
10:24 71.6 °F 66.6 °F 30.06 in Calm   1 mph 84% 0 in meteobridge W/m2
10:29 71.4 °F 66.4 °F 30.06 in Calm     84% 0 in meteobridge W/m2
10:34 71.2 °F 66.2 °F 30.06 in Calm     84% 0 in meteobridge W/m2
10:39 70.9 °F 66.2 °F 30.06 in Calm     85% 0 in meteobridge W/m2
10:44 70.5 °F 66.2 °F 30.06 in Calm     86% 0 in meteobridge W/m2
10:49 70.5 °F 66.2 °F 30.05 in Calm     86% 0 in meteobridge W/m2
10:54 70.9 °F 66.6 °F 30.06 in Calm   1 mph 86% 0 in meteobridge W/m2
10:59 71.2 °F 66.9 °F 30.06 in Calm   1 mph 86% 0 in meteobridge W/m2
11:04 72 °F 67.3 °F 30.06 in Calm   2 mph 85% 0 in meteobridge W/m2
11:09 72.3 °F 67.3 °F 30.05 in Calm   1 mph 84% 0 in meteobridge W/m2
11:14 72.7 °F 67.3 °F 30.05 in Calm   3 mph 83% 0 in meteobridge W/m2
11:19 73 °F 67.6 °F 30.05 in Calm     83% 0 in meteobridge W/m2
11:24 73.8 °F 68 °F 30.05 in Calm   2 mph 82% 0 in meteobridge W/m2
11:29 73.8 °F 67.6 °F 30.05 in Calm     81% 0 in meteobridge W/m2
11:34 73.9 °F 68.2 °F 30.05 in Calm   1 mph 82% 0 in meteobridge W/m2
11:39 74.5 °F 68.2 °F 30.05 in SE 0.9 mph 4 mph 81% 0 in meteobridge W/m2
11:44 74.8 °F 67.5 °F 30.05 in Calm     78% 0 in meteobridge W/m2
11:49 74.8 °F 67.8 °F 30.05 in Calm     79% 0 in meteobridge W/m2
11:54 74.7 °F 67.6 °F 30.05 in Calm   1 mph 79% 0 in meteobridge W/m2
11:59 74.8 °F 67.8 °F 30.04 in Calm   4 mph 79% 0 in meteobridge W/m2
12:04 75 °F 67.6 °F 30.04 in NNE 2 mph 2 mph 78% 0 in meteobridge W/m2
12:09 75.2 °F 67.5 °F 30.04 in Calm     77% 0 in meteobridge W/m2
12:14 75.6 °F 68.2 °F 30.04 in Calm   1 mph 78% 0 in meteobridge W/m2
12:19 75.6 °F 67.8 °F 30.03 in ESE 2 mph 5 mph 77% 0 in meteobridge W/m2
12:24 75.7 °F 67.6 °F 30.03 in Calm   1 mph 76% 0 in meteobridge W/m2
12:29 76.3 °F 68.2 °F 30.03 in Calm   2 mph 76% 0 in meteobridge W/m2
12:34 75.9 °F 67.1 °F 30.03 in Calm   1 mph 74% 0 in meteobridge W/m2
12:39 75.6 °F 67.8 °F 30.03 in Calm     77% 0 in meteobridge W/m2
12:44 75.4 °F 67.6 °F 30.03 in Calm     77% 0 in meteobridge W/m2
12:49 75.2 °F 67.5 °F 30.02 in Calm   1 mph 77% 0 in meteobridge W/m2
12:54 75.6 °F 67.8 °F 30.02 in ENE 0.9 mph 1 mph 77% 0 in meteobridge W/m2
12:59 76.5 °F 68.4 °F 30.02 in Calm   5 mph 76% 0 in meteobridge W/m2
13:04 77.2 °F 68.2 °F 30.01 in East 0.9 mph 3 mph 74% 0 in meteobridge W/m2
13:09 77 °F 68 °F 30.01 in Calm   1 mph 74% 0 in meteobridge W/m2
13:14 76.5 °F 67.6 °F 30.01 in Calm     74% 0 in meteobridge W/m2
13:19 76.3 °F 68.2 °F 30.01 in Calm     76% 0 in meteobridge W/m2
13:24 75.7 °F 68 °F 30.01 in Calm     77% 0 in meteobridge W/m2
13:29 75.9 °F 67.8 °F 30.01 in Calm   5 mph 76% 0 in meteobridge W/m2
13:34 76.6 °F 67.6 °F 30.01 in Calm   3 mph 74% 0 in meteobridge W/m2
13:39 77.4 °F 67.6 °F 30.01 in Calm   1 mph 72% 0 in meteobridge W/m2
13:44 78.1 °F 68.4 °F 30.00 in East 0.9 mph 3 mph 72% 0 in meteobridge W/m2
13:49 78.4 °F 67.8 °F 30.00 in East 0.9 mph 3 mph 70% 0 in meteobridge W/m2
13:54 78.4 °F 67.5 °F 30.00 in Calm   1 mph 69% 0 in meteobridge W/m2
13:59 78.4 °F 68.2 °F 30.00 in ESE 0.9 mph 5 mph 71% 0 in meteobridge W/m2
14:04 77.7 °F 68 °F 30.00 in Calm   1 mph 72% 0 in meteobridge W/m2
14:09 77.4 °F 67.6 °F 29.99 in Calm   1 mph 72% 0 in meteobridge W/m2
14:14 77.2 °F 67.1 °F 29.99 in Calm   4 mph 71% 0 in meteobridge W/m2
14:19 77.2 °F 67.8 °F 29.99 in Calm   1 mph 73% 0 in meteobridge W/m2
14:24 76.8 °F 67.5 °F 29.99 in Calm     73% 0 in meteobridge W/m2
14:29 76.6 °F 67.6 °F 29.99 in Calm     74% 0 in meteobridge W/m2
14:34 76.8 °F 67.8 °F 29.98 in Calm   1 mph 74% 0 in meteobridge W/m2
14:39 77 °F 67.6 °F 29.98 in Calm     73% 0 in meteobridge W/m2
14:44 76.8 °F 67.1 °F 29.98 in Calm     72% 0 in meteobridge W/m2
14:49 76.5 °F 67.1 °F 29.98 in Calm     73% 0 in meteobridge W/m2
14:54 76.3 °F 67.5 °F 29.98 in Calm     74% 0 in meteobridge W/m2
14:59 76.1 °F 67.6 °F 29.98 in Calm     75% 0 in meteobridge W/m2
15:04 75.9 °F 67.8 °F 29.98 in Calm     76% 0 in meteobridge W/m2
15:09 76.3 °F 67.8 °F 29.97 in Calm     75% 0 in meteobridge W/m2
15:14 76.8 °F 67.1 °F 29.97 in Calm     72% 0 in meteobridge W/m2
15:19 77.2 °F 68.2 °F 29.97 in Calm     74% 0 in meteobridge W/m2
15:24 77.7 °F 67.1 °F 29.96 in East 2 mph 2 mph 70% 0 in meteobridge W/m2
15:29 78.1 °F 67.1 °F 29.96 in East 0.9 mph 1 mph 69% 0 in meteobridge W/m2
15:34 78.6 °F 67.6 °F 29.96 in Calm     69% 0 in meteobridge W/m2
15:39 79 °F 65.8 °F 29.96 in Calm   4 mph 64% 0 in meteobridge W/m2
15:44 79.2 °F 65.8 °F 29.96 in Calm   1 mph 64% 0 in meteobridge W/m2
15:49 79.2 °F 66.4 °F 29.96 in Calm     65% 0 in meteobridge W/m2
15:54 79.3 °F 65.7 °F 29.96 in Calm   3 mph 63% 0 in meteobridge W/m2
15:59 79.9 °F 66.2 °F 29.95 in Calm     63% 0 in meteobridge W/m2
16:04 80.1 °F 65.5 °F 29.95 in Calm   1 mph 61% 0 in meteobridge W/m2
16:09 80.1 °F 64.9 °F 29.95 in Calm     60% 0 in meteobridge W/m2
16:14 79.9 °F 65.7 °F 29.95 in Calm   1 mph 62% 0 in meteobridge W/m2
16:19 79.5 °F 65.3 °F 29.95 in Calm   5 mph 62% 0 in meteobridge W/m2
16:24 79.3 °F 65.1 °F 29.95 in Calm     62% 0 in meteobridge W/m2
16:29 79.3 °F 65.1 °F 29.95 in Calm   1 mph 62% 0 in meteobridge W/m2
16:34 79.5 °F 65.3 °F 29.95 in Calm   3 mph 62% 0 in meteobridge W/m2
16:39 79.7 °F 65.1 °F 29.95 in Calm   2 mph 61% 0 in meteobridge W/m2
16:44 79.7 °F 64.6 °F 29.95 in North 2.9 mph 5 mph 60% 0 in meteobridge W/m2
16:49 80.1 °F 63.9 °F 29.95 in North 0.9 mph 4 mph 58% 0 in meteobridge W/m2
16:54 80.4 °F 64.8 °F 29.95 in Calm     59% 0 in meteobridge W/m2
16:59 80.8 °F 63.1 °F 29.95 in Calm   1 mph 55% 0 in meteobridge W/m2
17:04 80.8 °F 64.6 °F 29.95 in Calm   2 mph 58% 0 in meteobridge W/m2
17:09 80.8 °F 64 °F 29.95 in West 2.9 mph 5 mph 57% 0 in meteobridge W/m2
17:14 80.8 °F 64 °F 29.95 in NW 0.9 mph 2 mph 57% 0 in meteobridge W/m2
17:19 81 °F 64.2 °F 29.95 in Calm   5 mph 57% 0 in meteobridge W/m2
17:24 81 °F 63.9 °F 29.95 in Calm   2 mph 56% 0 in meteobridge W/m2
17:29 80.6 °F 63.5 °F 29.95 in Calm   2 mph 56% 0 in meteobridge W/m2
17:34 80.4 °F 63.3 °F 29.94 in Calm   5 mph 56% 0 in meteobridge W/m2
17:39 80.2 °F 64 °F 29.94 in Calm     58% 0 in meteobridge W/m2
17:44 80.1 °F 64.4 °F 29.94 in NNE 0.9 mph 3 mph 59% 0 in meteobridge W/m2
17:49 80.1 °F 64.4 °F 29.94 in Calm   1 mph 59% 0 in meteobridge W/m2
17:54 79.9 °F 64.2 °F 29.94 in Calm     59% 0 in meteobridge W/m2
17:59 79.5 °F 63.5 °F 29.95 in Calm   4 mph 58% 0 in meteobridge W/m2
18:04 79.3 °F 64.2 °F 29.95 in Calm     60% 0 in meteobridge W/m2
18:09 79.2 °F 63.1 °F 29.95 in Calm   4 mph 58% 0 in meteobridge W/m2
18:14 79.2 °F 62.1 °F 29.95 in Calm   4 mph 56% 0 in meteobridge W/m2
18:19 79 °F 63 °F 29.95 in Calm   1 mph 58% 0 in meteobridge W/m2
18:24 79 °F 62.4 °F 29.95 in Calm   3 mph 57% 0 in meteobridge W/m2
18:29 78.8 °F 63.3 °F 29.95 in Calm     59% 0 in meteobridge W/m2
18:34 78.4 °F 63.9 °F 29.95 in Calm     61% 0 in meteobridge W/m2
18:39 78.4 °F 63.9 °F 29.95 in Calm     61% 0 in meteobridge W/m2
18:44 78.1 °F 63.5 °F 29.95 in Calm   4 mph 61% 0 in meteobridge W/m2
18:49 77.9 °F 64.2 °F 29.95 in Calm     63% 0 in meteobridge W/m2
18:54 77.5 °F 64.8 °F 29.95 in Calm     65% 0 in meteobridge W/m2
18:59 77.4 °F 63.9 °F 29.95 in Calm   1 mph 63% 0 in meteobridge W/m2
19:04 77 °F 64.4 °F 29.95 in Calm     65% 0 in meteobridge W/m2
19:09 76.8 °F 62.4 °F 29.94 in Calm     61% 0 in meteobridge W/m2
19:14 76.5 °F 64.2 °F 29.94 in Calm     66% 0 in meteobridge W/m2
19:19 76.3 °F 64 °F 29.94 in Calm     66% 0 in meteobridge W/m2
19:24 75.9 °F 64.2 °F 29.94 in Calm     67% 0 in meteobridge W/m2
19:29 75.6 °F 63.9 °F 29.94 in Calm     67% 0 in meteobridge W/m2
19:34 75.2 °F 64.4 °F 29.94 in Calm     69% 0 in meteobridge W/m2
19:39 74.8 °F 64 °F 29.94 in Calm     69% 0 in meteobridge W/m2
19:44 74.7 °F 63.9 °F 29.94 in Calm     69% 0 in meteobridge W/m2
19:49 74.1 °F 63.7 °F 29.94 in Calm     70% 0 in meteobridge W/m2
19:54 73.9 °F 63.5 °F 29.94 in Calm     70% 0 in meteobridge W/m2
19:59 73.6 °F 64 °F 29.94 in Calm     72% 0 in meteobridge W/m2
20:04 73.2 °F 64 °F 29.94 in Calm     73% 0 in meteobridge W/m2
20:09 72.9 °F 64 °F 29.94 in Calm     74% 0 in meteobridge W/m2
20:14 72.7 °F 64.2 °F 29.94 in Calm     75% 0 in meteobridge W/m2
20:19 72.3 °F 63.9 °F 29.94 in Calm     75% 0 in meteobridge W/m2
20:24 72.1 °F 64.6 °F 29.95 in Calm     77% 0 in meteobridge W/m2
20:29 72 °F 64.4 °F 29.95 in Calm     77% 0 in meteobridge W/m2
20:34 71.6 °F 64.4 °F 29.95 in Calm     78% 0 in meteobridge W/m2
20:39 71.2 °F 64.4 °F 29.95 in Calm     79% 0 in meteobridge W/m2
20:44 70.9 °F 64.4 °F 29.95 in Calm     80% 0 in meteobridge W/m2
20:49 70.5 °F 64.4 °F 29.95 in Calm     81% 0 in meteobridge W/m2
20:54 70.2 °F 64.4 °F 29.95 in Calm     82% 0 in meteobridge W/m2
20:59 70 °F 64.2 °F 29.95 in Calm     82% 0 in meteobridge W/m2
21:04 69.6 °F 64.2 °F 29.95 in Calm     83% 0 in meteobridge W/m2
21:09 69.4 °F 64 °F 29.95 in Calm     83% 0 in meteobridge W/m2
21:14 69.3 °F 63.9 °F 29.95 in Calm     83% 0 in meteobridge W/m2
21:19 69.1 °F 63.7 °F 29.95 in Calm     83% 0 in meteobridge W/m2
21:24 68.7 °F 63.7 °F 29.96 in Calm     84% 0 in meteobridge W/m2
21:29 68.5 °F 63.5 °F 29.96 in Calm     84% 0 in meteobridge W/m2
21:34 68.2 °F 63.5 °F 29.96 in Calm     85% 0 in meteobridge W/m2
21:39 68 °F 63.3 °F 29.96 in Calm     85% 0 in meteobridge W/m2
21:44 67.8 °F 63.5 °F 29.96 in Calm     86% 0 in meteobridge W/m2
21:49 67.5 °F 63.1 °F 29.96 in Calm     86% 0 in meteobridge W/m2
21:54 67.3 °F 63 °F 29.96 in Calm     86% 0 in meteobridge W/m2
21:59 66.9 °F 63 °F 29.96 in Calm     87% 0 in meteobridge W/m2
22:04 66.7 °F 62.8 °F 29.96 in Calm     87% 0 in meteobridge W/m2
22:09 66.6 °F 63 °F 29.96 in Calm     88% 0 in meteobridge W/m2
22:14 66.4 °F 62.8 °F 29.96 in Calm     88% 0 in meteobridge W/m2
22:19 66 °F 62.4 °F 29.96 in Calm     88% 0 in meteobridge W/m2
22:24 65.8 °F 62.4 °F 29.97 in Calm     89% 0 in meteobridge W/m2
22:29 65.5 °F 62.2 °F 29.97 in Calm     89% 0 in meteobridge W/m2
22:34 65.5 °F 62.4 °F 29.97 in Calm     90% 0 in meteobridge W/m2
22:39 65.1 °F 62.1 °F 29.97 in Calm     90% 0 in meteobridge W/m2
22:44 64.9 °F 61.9 °F 29.97 in Calm     90% 0 in meteobridge W/m2
22:49 64.8 °F 62.1 °F 29.97 in Calm     91% 0 in meteobridge W/m2
22:54 64.6 °F 61.9 °F 29.98 in Calm     91% 0 in meteobridge W/m2
22:59 64.4 °F 61.7 °F 29.97 in Calm     91% 0 in meteobridge W/m2
23:04 64.2 °F 61.5 °F 29.97 in Calm     91% 0 in meteobridge W/m2
23:09 64 °F 61.7 °F 29.97 in Calm     92% 0 in meteobridge W/m2
23:14 64 °F 61.7 °F 29.97 in Calm     92% 0 in meteobridge W/m2
23:19 63.9 °F 61.5 °F 29.97 in Calm     92% 0 in meteobridge W/m2
23:24 63.7 °F 61.3 °F 29.97 in Calm     92% 0 in meteobridge W/m2
23:29 63.5 °F 61.5 °F 29.97 in Calm     93% 0 in meteobridge W/m2
23:34 63.3 °F 61.3 °F 29.97 in Calm     93% 0 in meteobridge W/m2
23:39 63.1 °F 61.2 °F 29.97 in Calm     93% 0 in meteobridge W/m2
23:44 63.1 °F 61.2 °F 29.96 in Calm     93% 0 in meteobridge W/m2
23:49 63.1 °F 61.2 °F 29.96 in Calm     93% 0 in meteobridge W/m2
23:54 63 °F 61 °F 29.96 in Calm     93% 0 in meteobridge W/m2
23:59 63 °F 61 °F 29.97 in Calm     93% 0 in meteobridge W/m2
EllijayWeather
Compliments of Weather Underground - 2.5 mb